Time;durP1;ratioP1;P1;durP2;ratioP2;P2;SDS_P1;SDS_P2;PMS_P1;PMS_P2;Temp;Humidity;BMP_temperature;BMP_pressure;BME280_temperature;BME280_humidity;BME280_pressure;Samples;Min_cycle;Max_cycle;Signal;HPM_P1;HPM_P2
2023/03/29 00:00:27;;;;;;;;;;;;;;;6.69;100.00;98476.38;5078245;28;19959;-71
2023/03/29 00:02:55;;;;;;;;;;;;;;;6.48;100.00;98485.63;5083697;28;19980;-72
2023/03/29 00:05:24;;;;;;;;;;;;;;;6.28;100.00;98488.50;5084898;28;19924;-71
2023/03/29 00:07:52;;;;;;;;;;;;;;;5.98;100.00;98482.28;5080625;28;19925;-71
2023/03/29 00:10:19;;;;;;;;;;;;;;;5.69;100.00;98480.31;5081080;28;20467;-71
2023/03/29 00:12:47;;;;;;;;;;;;;;;5.91;100.00;98471.75;5084037;28;19960;-71
2023/03/29 00:15:14;;;;;;;;;;;;;;;6.18;100.00;98469.66;5083413;28;20006;-71
2023/03/29 00:17:40;;;;;;;;;;;;;;;5.87;100.00;98475.09;5081516;28;19924;-71
2023/03/29 00:20:09;;;;;;;;;;;;;;;5.57;100.00;98476.75;5081088;28;19929;-72
2023/03/29 00:22:36;;;;;;;;;;;;;;;5.34;100.00;98472.88;5080988;28;19988;-71
2023/03/29 00:25:02;;;;;;;;;;;;;;;5.13;100.00;98473.22;5083303;28;19960;-71
2023/03/29 00:27:29;;;;;;;;;;;;;;;4.89;100.00;98466.84;5084266;28;19927;-71
2023/03/29 00:29:57;;;;;;;;;;;;;;;4.83;100.00;98475.63;5080923;28;19939;-71
2023/03/29 00:32:24;;;;;;;;;;;;;;;4.88;100.00;98472.38;5081007;28;19940;-71
2023/03/29 00:34:50;;;;;;;;;;;;;;;4.98;100.00;98477.19;5084035;28;19924;-71
2023/03/29 00:37:17;;;;;;;;;;;;;;;5.15;100.00;98470.34;5084184;28;19924;-71
2023/03/29 00:39:44;;;;;;;;;;;;;;;5.35;100.00;98469.16;5081792;28;19932;-71
2023/03/29 00:42:12;;;;;;;;;;;;;;;5.48;100.00;98464.81;5080589;28;19929;-70
2023/03/29 00:45:03;;;;;;;;;;;;;;;5.12;100.00;98458.34;5082032;28;19999;-70
2023/03/29 00:47:30;;;;;;;;;;;;;;;5.05;100.00;98456.75;5082152;28;19971;-70
2023/03/29 00:50:00;;;;;;;;;;;;;;;5.04;100.00;98463.09;5080279;28;19936;-71
2023/03/29 00:52:30;;;;;;;;;;;;;;;5.32;100.00;98456.34;5080303;28;20379;-71
2023/03/29 00:54:58;;;;;;;;;;;;;;;5.22;100.00;98456.06;5072689;28;19963;-71
2023/03/29 00:57:27;;;;;;;;;;;;;;;5.20;100.00;98468.69;5080261;28;19997;-71
2023/03/29 00:59:55;;;;;;;;;;;;;;;5.39;100.00;98475.66;5072239;28;19925;-71
2023/03/29 01:02:25;;;;;;;;;;;;;;;5.56;100.00;98475.13;5079699;28;19984;-72
2023/03/29 01:04:53;;;;;;;;;;;;;;;5.98;100.00;98480.47;5083124;28;19956;-72
2023/03/29 01:07:22;;;;;;;;;;;;;;;5.94;100.00;98473.19;5083950;28;19963;-71
2023/03/29 01:09:52;;;;;;;;;;;;;;;5.77;100.00;98475.53;5081287;28;20335;-70
2023/03/29 01:12:20;;;;;;;;;;;;;;;5.79;100.00;98485.91;5080580;28;19960;-71
2023/03/29 01:14:50;;;;;;;;;;;;;;;5.29;100.00;98472.69;5083077;28;19928;-71
2023/03/29 01:17:20;;;;;;;;;;;;;;;4.77;100.00;98468.53;5083810;28;19942;-71
2023/03/29 01:19:52;;;;;;;;;;;;;;;5.06;100.00;98480.41;5081025;28;20337;-70
2023/03/29 01:22:24;;;;;;;;;;;;;;;4.93;100.00;98474.34;5080232;28;19986;-71
2023/03/29 01:25:02;;;;;;;;;;;;;;;4.76;100.00;98466.13;5084045;28;19963;-71
2023/03/29 01:27:46;;;;;;;;;;;;;;;4.62;100.00;98451.34;5083479;28;19925;-70
2023/03/29 01:30:16;;;;;;;;;;;;;;;4.74;100.00;98449.63;5069959;28;19932;-70
2023/03/29 01:32:44;;;;;;;;;;;;;;;4.70;100.00;98449.28;5082429;28;19975;-70
2023/03/29 01:35:13;;;;;;;;;;;;;;;4.81;100.00;98439.84;5084167;28;19988;-71
2023/03/29 01:37:43;;;;;;;;;;;;;;;4.59;100.00;98436.69;5082293;28;19925;-70
2023/03/29 01:40:10;;;;;;;;;;;;;;;4.15;100.00;98432.22;5079012;28;19944;-71
2023/03/29 01:42:42;;;;;;;;;;;;;;;3.97;100.00;98421.50;5079964;28;19956;-71
2023/03/29 01:45:15;;;;;;;;;;;;;;;3.85;100.00;98406.50;5083456;28;19928;-70
2023/03/29 01:47:45;;;;;;;;;;;;;;;3.80;100.00;98410.59;5080989;28;19920;-70
2023/03/29 01:50:15;;;;;;;;;;;;;;;3.99;100.00;98398.31;5079310;28;19924;-70
2023/03/29 01:52:45;;;;;;;;;;;;;;;3.92;100.00;98397.56;5081266;28;19993;-71
2023/03/29 01:55:14;;;;;;;;;;;;;;;3.93;100.00;98404.44;5082925;28;19970;-70
2023/03/29 01:57:42;;;;;;;;;;;;;;;4.42;100.00;98390.63;5080806;28;20070;-70
2023/03/29 02:00:11;;;;;;;;;;;;;;;4.57;100.00;98382.41;5077941;28;19932;-70
2023/03/29 02:02:38;;;;;;;;;;;;;;;4.34;100.00;98391.66;5080376;28;19951;-70
2023/03/29 02:05:08;;;;;;;;;;;;;;;4.26;100.00;98389.28;5083084;28;19992;-70
2023/03/29 02:07:37;;;;;;;;;;;;;;;3.98;100.00;98388.78;5081613;28;19932;-70
2023/03/29 02:10:03;;;;;;;;;;;;;;;4.05;100.00;98401.97;5078853;28;19963;-71
2023/03/29 02:12:30;;;;;;;;;;;;;;;4.55;100.00;98381.81;5079260;28;20439;-70
2023/03/29 02:14:57;;;;;;;;;;;;;;;4.17;100.00;98387.09;5081919;28;19959;-70
2023/03/29 02:17:25;;;;;;;;;;;;;;;4.03;100.00;98375.75;5082388;28;20007;-70
2023/03/29 02:19:54;;;;;;;;;;;;;;;4.13;100.00;98373.47;5077872;28;19931;-71
2023/03/29 02:22:26;;;;;;;;;;;;;;;4.19;100.00;98372.63;5078795;28;19925;-71
2023/03/29 02:24:55;;;;;;;;;;;;;;;3.92;100.00;98368.50;5070693;28;19925;-71
2023/03/29 02:27:21;;;;;;;;;;;;;;;3.86;100.00;98360.59;5078737;28;19932;-71
2023/03/29 02:29:48;;;;;;;;;;;;;;;3.86;100.00;98366.69;5080099;28;20027;-71
2023/03/29 02:32:18;;;;;;;;;;;;;;;4.09;100.00;98350.31;5078946;28;19955;-71
2023/03/29 02:34:48;;;;;;;;;;;;;;;3.91;100.00;98351.00;5081334;28;19924;-71
2023/03/29 02:37:17;;;;;;;;;;;;;;;4.38;100.00;98333.06;5082202;28;19936;-71
2023/03/29 02:39:48;;;;;;;;;;;;;;;4.74;100.00;98343.81;5079819;28;19924;-71
2023/03/29 02:42:16;;;;;;;;;;;;;;;4.61;100.00;98342.06;5078682;28;19988;-71
2023/03/29 02:44:45;;;;;;;;;;;;;;;4.38;100.00;98341.00;5080706;28;19925;-71
2023/03/29 02:47:13;;;;;;;;;;;;;;;4.40;100.00;98338.94;5082063;28;19954;-71
2023/03/29 02:49:40;;;;;;;;;;;;;;;4.48;100.00;98341.34;5080222;28;19988;-72
2023/03/29 02:52:08;;;;;;;;;;;;;;;5.00;100.00;98346.25;5078511;28;19925;-71
2023/03/29 02:54:41;;;;;;;;;;;;;;;4.89;100.00;98342.47;5078357;28;19936;-71
2023/03/29 02:57:10;;;;;;;;;;;;;;;5.11;100.00;98339.44;5081898;28;19920;-71
2023/03/29 02:59:37;;;;;;;;;;;;;;;5.49;100.00;98337.44;5080656;28;19921;-70
2023/03/29 03:02:04;;;;;;;;;;;;;;;5.53;100.00;98338.63;5078548;28;19964;-71
2023/03/29 03:04:30;;;;;;;;;;;;;;;5.78;100.00;98330.59;5078799;28;19952;-71
2023/03/29 03:06:57;;;;;;;;;;;;;;;5.90;100.00;98328.84;5081866;28;19956;-70
2023/03/29 03:09:23;;;;;;;;;;;;;;;5.78;100.00;98331.41;5081911;28;20012;-71
2023/03/29 03:11:50;;;;;;;;;;;;;;;5.85;100.00;98323.34;5078693;28;19985;-71
2023/03/29 03:14:17;;;;;;;;;;;;;;;5.81;100.00;98327.50;5078272;28;19991;-71
2023/03/29 03:16:44;;;;;;;;;;;;;;;5.65;100.00;98328.91;5080400;28;19951;-71
2023/03/29 03:19:10;;;;;;;;;;;;;;;5.77;100.00;98323.66;5081925;28;20472;-71
2023/03/29 03:21:37;;;;;;;;;;;;;;;5.89;100.00;98333.34;5080736;28;19967;-71
2023/03/29 03:24:05;;;;;;;;;;;;;;;4.81;100.00;98339.28;5078053;28;19924;-71
2023/03/29 03:26:31;;;;;;;;;;;;;;;4.58;100.00;98342.50;5079994;28;19921;-71
2023/03/29 03:28:58;;;;;;;;;;;;;;;4.62;100.00;98343.69;5085785;28;19925;-71
2023/03/29 03:31:27;;;;;;;;;;;;;;;4.44;100.00;98343.63;5085749;28;19967;-71
2023/03/29 03:33:53;;;;;;;;;;;;;;;4.69;100.00;98336.53;5074365;28;19931;-70
2023/03/29 03:36:25;;;;;;;;;;;;;;;4.26;100.00;98333.75;5082319;28;20523;-72
2023/03/29 03:38:51;;;;;;;;;;;;;;;3.84;100.00;98337.00;5084193;28;19964;-71
2023/03/29 03:41:18;;;;;;;;;;;;;;;3.41;100.00;98333.28;5085881;28;19946;-71
2023/03/29 03:43:47;;;;;;;;;;;;;;;3.20;100.00;98329.88;5083337;28;19968;-71
2023/03/29 03:46:13;;;;;;;;;;;;;;;3.17;100.00;98325.00;5082003;28;19956;-70
2023/03/29 03:48:41;;;;;;;;;;;;;;;2.94;100.00;98324.63;5083674;28;19964;-70
2023/03/29 03:51:08;;;;;;;;;;;;;;;2.77;100.00;98328.69;5085414;28;19983;-72
2023/03/29 03:53:34;;;;;;;;;;;;;;;3.20;100.00;98323.78;5084363;28;19935;-70
2023/03/29 03:56:07;;;;;;;;;;;;;;;3.13;100.00;98325.63;5081813;28;19928;-71
2023/03/29 03:58:33;;;;;;;;;;;;;;;3.14;100.00;98324.59;5082474;28;19929;-71
2023/03/29 04:01:00;;;;;;;;;;;;;;;3.08;100.00;98322.78;5085149;28;19939;-71
2023/03/29 04:03:26;;;;;;;;;;;;;;;3.45;100.00;98316.00;5085104;28;19932;-71
2023/03/29 04:05:54;;;;;;;;;;;;;;;3.40;100.00;98313.19;5089110;28;19924;-71
2023/03/29 04:08:21;;;;;;;;;;;;;;;3.37;100.00;98316.25;5081661;28;19925;-71
2023/03/29 04:10:51;;;;;;;;;;;;;;;3.10;100.00;98311.00;5084495;28;20022;-71
2023/03/29 04:13:17;;;;;;;;;;;;;;;3.00;100.00;98317.75;5085674;28;19987;-71
2023/03/29 04:15:44;;;;;;;;;;;;;;;2.92;100.00;98318.75;5082830;28;19951;-71
2023/03/29 04:18:11;;;;;;;;;;;;;;;2.88;100.00;98314.09;5082264;28;19925;-70
2023/03/29 04:20:40;;;;;;;;;;;;;;;2.79;100.00;98310.84;5082754;28;20513;-70
2023/03/29 04:23:07;;;;;;;;;;;;;;;3.00;100.00;98313.25;5085221;28;19924;-70
2023/03/29 04:25:34;;;;;;;;;;;;;;;2.84;100.00;98316.31;5084060;28;19935;-70
2023/03/29 04:28:01;;;;;;;;;;;;;;;2.83;100.00;98309.41;5080390;28;20762;-70
2023/03/29 04:30:27;;;;;;;;;;;;;;;2.76;100.00;98308.59;5080292;28;19948;-71
2023/03/29 04:32:53;;;;;;;;;;;;;;;2.78;100.00;98305.78;5073181;28;19924;-70
2023/03/29 04:35:20;;;;;;;;;;;;;;;2.62;100.00;98307.00;5080992;28;20028;-71
2023/03/29 04:37:47;;;;;;;;;;;;;;;2.52;100.00;98290.75;5083446;28;19948;-71
2023/03/29 04:40:18;;;;;;;;;;;;;;;2.45;100.00;98298.66;5084510;28;19920;-71
2023/03/29 04:42:46;;;;;;;;;;;;;;;2.41;100.00;98301.91;5082237;28;20506;-70
2023/03/29 04:45:12;;;;;;;;;;;;;;;2.50;100.00;98295.44;5081141;28;19925;-70
2023/03/29 04:47:39;;;;;;;;;;;;;;;2.71;100.00;98284.69;5082528;28;19928;-71
2023/03/29 04:50:06;;;;;;;;;;;;;;;2.71;100.00;98282.84;5084909;28;20554;-70
2023/03/29 04:52:33;;;;;;;;;;;;;;;2.73;100.00;98280.00;5084260;28;19929;-70
2023/03/29 04:54:59;;;;;;;;;;;;;;;2.61;100.00;98285.09;5081284;28;19975;-70
2023/03/29 04:57:27;;;;;;;;;;;;;;;2.62;100.00;98297.25;5081958;28;19932;-70
2023/03/29 04:59:54;;;;;;;;;;;;;;;2.67;100.00;98304.56;5073061;28;19925;-72
2023/03/29 05:02:20;;;;;;;;;;;;;;;2.70;100.00;98297.03;5080761;28;19985;-70
2023/03/29 05:04:47;;;;;;;;;;;;;;;2.74;100.00;98294.81;5083508;28;19956;-70
2023/03/29 05:07:14;;;;;;;;;;;;;;;2.69;100.00;98292.00;5084443;28;19932;-71
2023/03/29 05:09:41;;;;;;;;;;;;;;;2.77;100.00;98299.69;5082860;28;19925;-70
2023/03/29 05:12:07;;;;;;;;;;;;;;;2.63;100.00;98300.72;5080371;28;19925;-71
2023/03/29 05:14:35;;;;;;;;;;;;;;;2.60;100.00;98306.41;5081038;28;19924;-70
2023/03/29 05:17:05;;;;;;;;;;;;;;;2.60;100.00;98291.38;5082643;28;19982;-72
2023/03/29 05:19:32;;;;;;;;;;;;;;;2.60;100.00;98298.47;5083279;28;19931;-71
2023/03/29 05:21:58;;;;;;;;;;;;;;;2.77;100.00;98280.41;5080464;28;19925;-71
2023/03/29 05:24:25;;;;;;;;;;;;;;;2.88;100.00;98290.34;5080315;28;19986;-71
2023/03/29 05:26:51;;;;;;;;;;;;;;;2.88;100.00;98290.34;5082021;28;19960;-71
2023/03/29 05:29:18;;;;;;;;;;;;;;;2.69;100.00;98289.34;5083617;28;19984;-71
2023/03/29 05:31:46;;;;;;;;;;;;;;;2.75;100.00;98288.53;5081082;28;19925;-70
2023/03/29 05:34:12;;;;;;;;;;;;;;;2.89;100.00;98292.78;5079729;28;19924;-70
2023/03/29 05:36:39;;;;;;;;;;;;;;;3.20;100.00;98277.09;5081116;28;19955;-70
2023/03/29 05:39:06;;;;;;;;;;;;;;;2.89;100.00;98287.50;5083166;28;20511;-70
2023/03/29 05:41:33;;;;;;;;;;;;;;;2.71;100.00;98279.41;5082372;28;19924;-70
2023/03/29 05:43:59;;;;;;;;;;;;;;;2.58;100.00;98272.31;5079644;28;19989;-70
2023/03/29 05:46:26;;;;;;;;;;;;;;;2.60;100.00;98280.81;5080361;28;19948;-70
2023/03/29 05:48:53;;;;;;;;;;;;;;;2.56;100.00;98269.06;5083203;28;19974;-70
2023/03/29 05:51:23;;;;;;;;;;;;;;;2.80;100.00;98270.28;5084964;28;19924;-71
2023/03/29 05:53:50;;;;;;;;;;;;;;;2.67;100.00;98272.91;5082134;28;19925;-71
2023/03/29 05:56:17;;;;;;;;;;;;;;;2.50;100.00;98271.72;5083183;28;19928;-71
2023/03/29 05:58:45;;;;;;;;;;;;;;;2.43;100.00;98279.59;5082747;28;19921;-71
2023/03/29 06:01:12;;;;;;;;;;;;;;;2.41;100.00;98280.81;5084838;28;19924;-70
2023/03/29 06:03:38;;;;;;;;;;;;;;;2.38;100.00;98276.78;5083570;28;19920;-70
2023/03/29 06:06:07;;;;;;;;;;;;;;;2.44;100.00;98281.25;5079768;28;19960;-70
2023/03/29 06:08:34;;;;;;;;;;;;;;;2.41;100.00;98280.81;5080555;28;20507;-71
2023/03/29 06:11:01;;;;;;;;;;;;;;;2.46;100.00;98273.13;5082769;28;19967;-71
2023/03/29 06:13:28;;;;;;;;;;;;;;;2.73;100.00;98274.72;5082700;28;19924;-71
2023/03/29 06:15:54;;;;;;;;;;;;;;;2.62;100.00;98268.25;5070961;28;19924;-71
2023/03/29 06:18:20;;;;;;;;;;;;;;;2.81;100.00;98271.91;5079205;28;19925;-71
2023/03/29 06:20:47;;;;;;;;;;;;;;;2.94;100.00;98269.22;5081639;28;19979;-71
2023/03/29 06:23:15;;;;;;;;;;;;;;;2.81;100.00;98260.53;5081095;28;19924;-71
2023/03/29 06:25:43;;;;;;;;;;;;;;;2.65;100.00;98280.22;5080331;28;19983;-70
2023/03/29 06:28:10;;;;;;;;;;;;;;;2.69;100.00;98257.72;5078780;28;19931;-70
2023/03/29 06:30:37;;;;;;;;;;;;;;;2.73;100.00;98256.28;5079809;28;19925;-71
2023/03/29 06:33:05;;;;;;;;;;;;;;;2.62;100.00;98241.06;5082684;28;19921;-71
2023/03/29 06:35:31;;;;;;;;;;;;;;;2.65;100.00;98259.13;5081651;28;19964;-69
2023/03/29 06:37:57;;;;;;;;;;;;;;;3.14;100.00;98256.00;5079489;28;20020;-70
2023/03/29 06:40:26;;;;;;;;;;;;;;;2.95;100.00;98257.66;5078923;28;19931;-71
2023/03/29 06:42:56;;;;;;;;;;;;;;;3.33;100.00;98272.78;5082213;28;19924;-71
2023/03/29 06:45:23;;;;;;;;;;;;;;;2.97;100.00;98273.31;5082637;28;20021;-71
2023/03/29 06:47:49;;;;;;;;;;;;;;;2.94;100.00;98269.22;5079720;28;19967;-71
2023/03/29 06:50:17;;;;;;;;;;;;;;;2.93;100.00;98270.25;5079424;28;20579;-71
2023/03/29 06:52:43;;;;;;;;;;;;;;;3.03;100.00;98265.34;5081404;28;19925;-70
2023/03/29 06:55:10;;;;;;;;;;;;;;;3.06;100.00;98266.78;5082799;28;19967;-71
2023/03/29 06:57:38;;;;;;;;;;;;;;;2.99;100.00;98274.72;5080981;28;19924;-71
2023/03/29 07:00:10;;;;;;;;;;;;;;;2.98;100.00;98273.06;5078359;28;19984;-71
2023/03/29 07:02:36;;;;;;;;;;;;;;;2.90;100.00;98275.94;5078965;28;19925;-71
2023/03/29 07:05:05;;;;;;;;;;;;;;;2.93;100.00;98272.06;5082219;28;19925;-71
2023/03/29 07:07:52;;;;;;;;;;;;;;;2.98;100.00;98261.72;5081470;28;19924;-71
2023/03/29 07:10:18;;;;;;;;;;;;;;;3.05;100.00;98267.78;5078160;28;19971;-71
2023/03/29 07:12:46;;;;;;;;;;;;;;;3.03;100.00;98272.47;5080542;28;19924;-71
2023/03/29 07:15:13;;;;;;;;;;;;;;;2.97;100.00;98268.81;5081576;28;20619;-71
2023/03/29 07:17:39;;;;;;;;;;;;;;;3.03;100.00;98264.56;5080042;28;19991;-71
2023/03/29 07:20:11;;;;;;;;;;;;;;;3.13;100.00;98264.91;5078123;28;19924;-71
2023/03/29 07:22:38;;;;;;;;;;;;;;;3.09;100.00;98259.28;5079626;28;19924;-71
2023/03/29 07:25:07;;;;;;;;;;;;;;;3.23;100.00;98276.69;5080849;28;19992;-71
2023/03/29 07:27:34;;;;;;;;;;;;;;;3.27;100.00;98277.09;5080771;28;19925;-71
2023/03/29 07:30:02;;;;;;;;;;;;;;;3.18;100.00;98273.88;5078165;28;19971;-70
2023/03/29 07:32:30;;;;;;;;;;;;;;;3.16;100.00;98275.06;5078267;28;19942;-70
2023/03/29 07:34:56;;;;;;;;;;;;;;;3.08;100.00;98281.38;5081679;28;19976;-70
2023/03/29 07:37:23;;;;;;;;;;;;;;;2.99;100.00;98293.19;5081695;28;19932;-70
2023/03/29 07:39:50;;;;;;;;;;;;;;;3.26;100.00;98286.00;5077688;28;19920;-71
2023/03/29 07:42:17;;;;;;;;;;;;;;;3.24;100.00;98288.06;5078258;28;19972;-71
2023/03/29 07:44:43;;;;;;;;;;;;;;;3.29;100.00;98290.88;5080108;28;19996;-70
2023/03/29 07:47:11;;;;;;;;;;;;;;;3.38;100.00;98291.44;5081728;28;19925;-70
2023/03/29 07:49:37;;;;;;;;;;;;;;;3.38;100.00;98283.53;5080160;28;20621;-71
2023/03/29 07:52:04;;;;;;;;;;;;;;;3.33;100.00;98296.56;5078042;28;19924;-72
2023/03/29 07:54:31;;;;;;;;;;;;;;;3.42;100.00;98290.03;5078570;28;19935;-72
2023/03/29 07:56:58;;;;;;;;;;;;;;;3.42;100.00;98288.22;5080356;28;19928;-72
2023/03/29 07:59:24;;;;;;;;;;;;;;;3.62;100.00;98299.50;5081262;28;19925;-71
2023/03/29 08:01:51;;;;;;;;;;;;;;;3.59;100.00;98286.72;5078377;28;19928;-71
2023/03/29 08:04:19;;;;;;;;;;;;;;;3.52;100.00;98285.13;5078510;28;19956;-71
2023/03/29 08:06:45;;;;;;;;;;;;;;;3.51;100.00;98276.38;5080512;28;19975;-71
2023/03/29 08:09:12;;;;;;;;;;;;;;;3.58;100.00;98284.28;5081243;28;19979;-71
2023/03/29 08:11:38;;;;;;;;;;;;;;;3.75;100.00;98285.41;5079866;28;20004;-71
2023/03/29 08:14:05;;;;;;;;;;;;;;;3.69;100.00;98279.16;5081379;28;20004;-71
2023/03/29 08:16:31;;;;;;;;;;;;;;;3.72;100.00;98276.09;5081646;28;19992;-71
2023/03/29 08:18:58;;;;;;;;;;;;;;;3.87;100.00;98273.16;5084897;28;19964;-71
2023/03/29 08:21:25;;;;;;;;;;;;;;;4.01;100.00;98274.72;5084631;28;19971;-71
2023/03/29 08:23:52;;;;;;;;;;;;;;;3.83;100.00;98272.00;5081452;28;19988;-71
2023/03/29 08:26:18;;;;;;;;;;;;;;;3.77;100.00;98278.13;5081136;28;19920;-70
2023/03/29 08:28:44;;;;;;;;;;;;;;;3.76;100.00;98276.50;5083458;28;19985;-71
2023/03/29 08:31:11;;;;;;;;;;;;;;;3.85;100.00;98280.50;5084459;28;19988;-71
2023/03/29 08:33:38;;;;;;;;;;;;;;;3.88;100.00;98277.44;5082945;28;19947;-71
2023/03/29 08:36:05;;;;;;;;;;;;;;;3.91;100.00;98270.91;5081111;28;19980;-71
2023/03/29 08:38:33;;;;;;;;;;;;;;;4.05;100.00;98275.94;5081394;28;19995;-71
2023/03/29 08:40:59;;;;;;;;;;;;;;;4.08;100.00;98280.00;5084422;28;19987;-71
2023/03/29 08:43:31;;;;;;;;;;;;;;;4.14;100.00;98273.84;5084193;28;19982;-71
2023/03/29 08:46:02;;;;;;;;;;;;;;;4.12;100.00;98281.16;5073336;28;19947;-71
2023/03/29 08:48:31;;;;;;;;;;;;;;;4.24;100.00;98269.69;5080955;28;19932;-71
2023/03/29 08:50:59;;;;;;;;;;;;;;;4.55;100.00;98274.16;5084233;28;19963;-71
2023/03/29 08:53:29;;;;;;;;;;;;;;;4.72;100.00;98267.31;5084196;28;19924;-71
2023/03/29 08:55:57;;;;;;;;;;;;;;;4.74;100.00;98265.25;5072720;28;19925;-71
2023/03/29 08:58:25;;;;;;;;;;;;;;;4.64;100.00;98262.28;5081103;28;19921;-71
2023/03/29 09:00:53;;;;;;;;;;;;;;;4.69;100.00;98272.22;5083749;28;19983;-71
2023/03/29 09:03:21;;;;;;;;;;;;;;;4.66;100.00;98265.53;5084181;28;19924;-71
2023/03/29 09:05:50;;;;;;;;;;;;;;;4.79;100.00;98261.97;5081506;28;20059;-70
2023/03/29 09:08:19;;;;;;;;;;;;;;;4.93;100.00;98265.28;5080778;28;19924;-71
2023/03/29 09:10:47;;;;;;;;;;;;;;;4.78;100.00;98260.34;5082693;28;19991;-70
2023/03/29 09:13:21;;;;;;;;;;;;;;;4.69;100.00;98256.34;5083932;28;19988;-71
2023/03/29 09:15:52;;;;;;;;;;;;;;;4.64;100.00;98266.78;5081014;28;19924;-71
2023/03/29 09:18:23;;;;;;;;;;;;;;;4.74;100.00;98264.44;5080264;28;19920;-71
2023/03/29 09:20:53;;;;;;;;;;;;;;;4.83;100.00;98274.53;5083007;28;19924;-70
2023/03/29 09:23:26;;;;;;;;;;;;;;;4.97;100.00;98271.75;5083289;28;19980;-71
2023/03/29 09:25:56;;;;;;;;;;;;;;;5.07;100.00;98270.25;5079761;28;20101;-71
2023/03/29 09:28:29;;;;;;;;;;;;;;;5.21;100.00;98255.84;5079969;28;19956;-72
2023/03/29 09:31:00;;;;;;;;;;;;;;;5.27;100.00;98248.84;5068866;28;19924;-71
2023/03/29 09:33:29;;;;;;;;;;;;;;;5.17;100.00;98259.94;5083344;28;19924;-71
2023/03/29 09:36:00;;;;;;;;;;;;;;;5.34;100.00;98247.75;5072045;28;19947;-71
2023/03/29 09:38:28;;;;;;;;;;;;;;;5.30;100.00;98248.41;5079820;28;20145;-71
2023/03/29 09:40:56;;;;;;;;;;;;;;;5.34;100.00;98250.41;5071369;28;19925;-72
2023/03/29 09:43:30;;;;;;;;;;;;;;;5.41;100.00;98245.84;5079360;28;19925;-71
2023/03/29 09:45:58;;;;;;;;;;;;;;;5.52;100.00;98243.47;5071562;28;19932;-71
2023/03/29 09:48:25;;;;;;;;;;;;;;;5.62;100.00;98243.75;5079443;28;19924;-71
2023/03/29 09:50:51;;;;;;;;;;;;;;;5.70;100.00;98244.25;5082262;28;19939;-71
2023/03/29 09:53:19;;;;;;;;;;;;;;;5.77;100.00;98236.22;5081501;28;19947;-71
2023/03/29 09:55:47;;;;;;;;;;;;;;;5.84;100.00;98234.28;5080407;28;19925;-71
2023/03/29 09:58:15;;;;;;;;;;;;;;;5.93;100.00;98232.97;5078462;28;19921;-71
2023/03/29 10:00:43;;;;;;;;;;;;;;;6.02;100.00;98233.47;5081368;28;20679;-71
2023/03/29 10:03:10;;;;;;;;;;;;;;;6.05;100.00;98233.00;5082992;28;19947;-71
2023/03/29 10:05:36;;;;;;;;;;;;;;;6.09;100.00;98232.34;5081273;28;19975;-72
2023/03/29 10:08:13;;;;;;;;;;;;;;;6.19;100.00;98229.94;5079049;28;19943;-73
2023/03/29 10:10:40;;;;;;;;;;;;;;;6.22;100.00;98228.69;5080530;28;19947;-73
2023/03/29 10:13:07;;;;;;;;;;;;;;;6.18;100.00;98225.69;5082564;28;19968;-71
2023/03/29 10:15:33;;;;;;;;;;;;;;;6.15;100.00;98220.84;5081562;28;19931;-71
2023/03/29 10:18:02;;;;;;;;;;;;;;;6.19;100.00;98221.19;5078974;28;19988;-71
2023/03/29 10:20:29;;;;;;;;;;;;;;;6.29;100.00;98226.72;5078801;28;19921;-72
2023/03/29 10:22:56;;;;;;;;;;;;;;;6.43;100.00;98221.00;5082301;28;20567;-71
2023/03/29 10:25:26;;;;;;;;;;;;;;;6.47;100.00;98223.97;5081300;28;19931;-72
2023/03/29 10:27:55;;;;;;;;;;;;;;;6.52;100.00;98216.16;5079030;28;19928;-71
2023/03/29 10:30:23;;;;;;;;;;;;;;;6.51;100.00;98210.03;5078530;28;19929;-72
2023/03/29 10:32:54;;;;;;;;;;;;;;;6.74;100.00;98219.06;5081536;28;19975;-72
2023/03/29 10:35:23;;;;;;;;;;;;;;;6.79;100.00;98213.84;5082607;28;20022;-71
2023/03/29 10:37:51;;;;;;;;;;;;;;;6.74;100.00;98208.44;5079003;28;20388;-72
2023/03/29 10:40:20;;;;;;;;;;;;;;;6.81;100.00;98209.94;5079353;28;19940;-71
2023/03/29 10:42:48;;;;;;;;;;;;;;;6.74;100.00;98209.25;5082457;28;19912;-70
2023/03/29 10:45:24;;;;;;;;;;;;;;;6.84;100.00;98211.34;5083651;28;19983;-72
2023/03/29 10:47:50;;;;;;;;;;;;;;;6.86;100.00;98207.41;5080253;28;19963;-73
2023/03/29 10:50:16;;;;;;;;;;;;;;;6.98;100.00;98208.19;5078809;28;19948;-72
2023/03/29 10:52:44;;;;;;;;;;;;;;;7.02;100.00;98201.38;5096170;28;19924;-72
2023/03/29 10:55:13;;;;;;;;;;;;;;;7.05;100.00;98200.13;5081035;28;19928;-72
2023/03/29 10:57:45;;;;;;;;;;;;;;;7.17;100.00;98206.22;5080788;28;19963;-71
2023/03/29 11:00:17;;;;;;;;;;;;;;;7.28;100.00;98204.56;5079613;28;19929;-71
2023/03/29 11:03:07;;;;;;;;;;;;;;;7.45;100.00;98205.47;5081291;28;19932;-72
2023/03/29 11:05:36;;;;;;;;;;;;;;;7.42;100.00;98197.97;5082185;28;19924;-72
2023/03/29 11:08:11;;;;;;;;;;;;;;;7.40;100.00;98187.56;5079562;28;20041;-72
2023/03/29 11:10:43;;;;;;;;;;;;;;;7.45;100.00;98189.53;5080477;28;19952;-72
2023/03/29 11:13:14;;;;;;;;;;;;;;;7.42;100.00;98193.47;5082920;28;19924;-72
2023/03/29 11:15:46;;;;;;;;;;;;;;;7.67;100.00;98184.34;5080790;28;19955;-72
2023/03/29 11:18:25;;;;;;;;;;;;;;;7.74;100.00;98174.38;5077362;28;19958;-72
2023/03/29 11:20:54;;;;;;;;;;;;;;;7.84;100.00;98182.53;5081081;28;19994;-71
2023/03/29 11:23:28;;;;;;;;;;;;;;;7.81;100.00;98183.00;5081739;28;19991;-72
2023/03/29 11:26:02;;;;;;;;;;;;;;;7.78;100.00;98168.34;5069963;28;19925;-74
2023/03/29 11:28:31;;;;;;;;;;;;;;;7.89;100.00;98169.34;5078194;28;19948;-72
2023/03/29 11:31:01;;;;;;;;;;;;;;;8.00;100.00;98177.25;5081805;28;19924;-72
2023/03/29 11:33:32;;;;;;;;;;;;;;;8.02;100.00;98164.53;5081595;28;19931;-72
2023/03/29 11:36:02;;;;;;;;;;;;;;;8.08;100.00;98173.38;5070547;28;19988;-71
2023/03/29 11:38:34;;;;;;;;;;;;;;;8.07;100.00;98166.47;5078234;28;19925;-71
2023/03/29 11:41:03;;;;;;;;;;;;;;;8.02;100.00;98167.19;5081758;28;19924;-72
2023/03/29 11:43:32;;;;;;;;;;;;;;;8.05;100.00;98161.38;5081893;28;19976;-72
2023/03/29 11:46:01;;;;;;;;;;;;;;;8.25;100.00;98162.75;5078948;28;19925;-71
2023/03/29 11:48:31;;;;;;;;;;;;;;;7.98;100.00;98160.72;5081700;28;19988;-70
2023/03/29 11:50:59;;;;;;;;;;;;;;;8.06;100.00;98163.00;5075113;28;19963;-71
2023/03/29 11:53:28;;;;;;;;;;;;;;;8.10;100.00;98161.47;5083201;28;19988;-71
2023/03/29 11:56:01;;;;;;;;;;;;;;;8.20;100.00;98160.81;5075047;28;19925;-70
2023/03/29 11:58:30;;;;;;;;;;;;;;;8.17;100.00;98155.19;5083159;28;19955;-71
2023/03/29 12:01:00;;;;;;;;;;;;;;;8.19;100.00;98151.25;5071995;28;19924;-70
2023/03/29 12:03:32;;;;;;;;;;;;;;;8.18;100.00;98156.78;5086578;28;19924;-72
2023/03/29 12:06:03;;;;;;;;;;;;;;;8.15;100.00;98160.75;5091343;28;20592;-70
2023/03/29 12:08:32;;;;;;;;;;;;;;;8.43;100.00;98158.03;5081708;28;19924;-71
2023/03/29 12:11:04;;;;;;;;;;;;;;;8.42;100.00;98163.59;5084994;28;19920;-72
2023/03/29 12:13:32;;;;;;;;;;;;;;;8.39;100.00;98159.56;5084859;28;19925;-72
2023/03/29 12:16:00;;;;;;;;;;;;;;;8.37;100.00;98155.53;5081248;28;19924;-72
2023/03/29 12:18:30;;;;;;;;;;;;;;;8.31;100.00;98152.00;5081535;28;19924;-72
2023/03/29 12:20:58;;;;;;;;;;;;;;;8.28;100.00;98155.13;5073222;28;19925;-72
2023/03/29 12:23:25;;;;;;;;;;;;;;;8.38;100.00;98147.31;5081360;28;19924;-72
2023/03/29 12:25:53;;;;;;;;;;;;;;;8.50;100.00;98142.72;5084403;28;19982;-72
2023/03/29 12:28:25;;;;;;;;;;;;;;;8.57;100.00;98146.00;5084677;28;20335;-70
2023/03/29 12:31:01;;;;;;;;;;;;;;;8.54;100.00;98140.38;5077480;28;19929;-71
2023/03/29 12:33:33;;;;;;;;;;;;;;;8.57;100.00;98139.88;5084593;28;19928;-71
2023/03/29 12:36:09;;;;;;;;;;;;;;;8.62;100.00;98131.97;5089282;28;19966;-71
2023/03/29 12:38:37;;;;;;;;;;;;;;;8.56;100.00;98127.63;5081769;28;19936;-72
2023/03/29 12:41:09;;;;;;;;;;;;;;;8.47;100.00;98131.75;5084438;28;19964;-72
2023/03/29 12:43:40;;;;;;;;;;;;;;;8.58;100.00;98128.16;5083462;28;19967;-72
2023/03/29 12:46:07;;;;;;;;;;;;;;;8.44;100.00;98135.72;5080650;28;19924;-71
2023/03/29 12:48:36;;;;;;;;;;;;;;;8.42;100.00;98126.31;5081109;28;19959;-72
2023/03/29 12:51:04;;;;;;;;;;;;;;;8.48;100.00;98115.53;5083595;28;19974;-72
2023/03/29 12:53:32;;;;;;;;;;;;;;;8.52;100.00;98129.16;5083526;28;19924;-72